Terminal Aerodrome Forecast
Issued by NWS

Home | Current Version | Previous Version | Text Only | Print | Product List | Glossary On
Versions: 1 2 3 4 5 6 7 8 9 10 11 12 13 14 15 16 17 18 19 20 21 22
000
FTUS43 KBIS 280500
TAFJMS
TAF
KJMS 280520Z 2806/2906 15011KT 2SM -FZDZ BR OVC005
     FM281500 17012KT P6SM SCT015
     FM281900 17012G28KT P6SM SCT140
     FM282200 18022G32KT P6SM BKN140=

USA.gov is the U.S. government's official web portal to all federal, state and local government web resources and services.